Beckers Corners, New York
Current Conditions -  °F | °C
As of 12:51 AM on Thursday 27 Nov 2014 (Local Time) from KALB Reporting Station
Light Snow Light Snow  
Wind Chill: -5°   Ceiling: 700
Heat Index: -1°   Visibility: 1.2mi
Dew Point: -2°   Wind: 9mph
Humidity: 89%   Direction: 340°NNW
Pressure: 29.91"   Gusts: NA
Location:  42.5455°N, 73.8296°W
Report Text: KALB 270551Z 34008KT 1 1/4SM -SN BR BKN007 OVC012 M01/M02 A2991 RMK AO2 TWR VIS 1 1/2 SLP131 BKN V SCT 4/009 P0002 60016 T10061022 10000 21006 55002
Loading
Personal Weather Stations






























Interactive Weather Map New forecast layout! Learn more

10-Day Weather Forecast

Advertisements
Track Severe Weather on mobile